sensor_id;sensor_type;location;lat;lon;timestamp;P1;durP1;ratioP1;P2;durP2;ratioP2
48268;SDS011;34088;52.232;5.196;2023-05-10T00:01:02;83.57;;;39.67;;
48268;SDS011;34088;52.232;5.196;2023-05-10T00:03:28;86.55;;;40.72;;
48268;SDS011;34088;52.232;5.196;2023-05-10T00:05:54;80.25;;;38.80;;
48268;SDS011;34088;52.232;5.196;2023-05-10T00:08:19;84.78;;;39.95;;
48268;SDS011;34088;52.232;5.196;2023-05-10T00:10:45;84.63;;;38.38;;
48268;SDS011;34088;52.232;5.196;2023-05-10T00:13:10;91.50;;;40.83;;
48268;SDS011;34088;52.232;5.196;2023-05-10T00:15:36;82.72;;;39.78;;
48268;SDS011;34088;52.232;5.196;2023-05-10T00:18:01;86.18;;;40.72;;
48268;SDS011;34088;52.232;5.196;2023-05-10T00:32:35;93.47;;;41.30;;
48268;SDS011;34088;52.232;5.196;2023-05-10T00:35:00;97.05;;;40.15;;
48268;SDS011;34088;52.232;5.196;2023-05-10T00:37:26;104.88;;;42.47;;
48268;SDS011;34088;52.232;5.196;2023-05-10T00:39:51;114.93;;;43.45;;
48268;SDS011;34088;52.232;5.196;2023-05-10T00:42:17;96.60;;;39.13;;
48268;SDS011;34088;52.232;5.196;2023-05-10T00:44:42;100.97;;;41.13;;
48268;SDS011;34088;52.232;5.196;2023-05-10T00:47:08;109.65;;;42.55;;
48268;SDS011;34088;52.232;5.196;2023-05-10T00:49:34;114.28;;;43.15;;
48268;SDS011;34088;52.232;5.196;2023-05-10T00:52:00;103.45;;;42.17;;
48268;SDS011;34088;52.232;5.196;2023-05-10T00:54:27;103.80;;;43.20;;
48268;SDS011;34088;52.232;5.196;2023-05-10T00:56:52;117.75;;;45.10;;
48268;SDS011;34088;52.232;5.196;2023-05-10T00:59:18;115.28;;;43.58;;
48268;SDS011;34088;52.232;5.196;2023-05-10T01:01:44;101.35;;;40.72;;
48268;SDS011;34088;52.232;5.196;2023-05-10T01:04:12;111.30;;;43.22;;
48268;SDS011;34088;52.232;5.196;2023-05-10T01:06:39;103.47;;;42.25;;
48268;SDS011;34088;52.232;5.196;2023-05-10T01:09:05;107.25;;;44.25;;
48268;SDS011;34088;52.232;5.196;2023-05-10T01:11:32;101.50;;;43.22;;
48268;SDS011;34088;52.232;5.196;2023-05-10T01:14:00;110.25;;;44.15;;
48268;SDS011;34088;52.232;5.196;2023-05-10T01:16:26;101.65;;;42.88;;
48268;SDS011;34088;52.232;5.196;2023-05-10T01:18:53;98.25;;;42.75;;
48268;SDS011;34088;52.232;5.196;2023-05-10T01:21:22;111.97;;;44.63;;
48268;SDS011;34088;52.232;5.196;2023-05-10T01:37:46;77.03;;;41.47;;
48268;SDS011;34088;52.232;5.196;2023-05-10T01:43:19;79.85;;;43.17;;
48268;SDS011;34088;52.232;5.196;2023-05-10T01:48:15;80.57;;;45.83;;
48268;SDS011;34088;52.232;5.196;2023-05-10T01:50:42;78.45;;;45.05;;
48268;SDS011;34088;52.232;5.196;2023-05-10T01:53:09;89.80;;;47.20;;
48268;SDS011;34088;52.232;5.196;2023-05-10T01:55:41;91.90;;;46.83;;
48268;SDS011;34088;52.232;5.196;2023-05-10T01:58:12;97.68;;;50.58;;
48268;SDS011;34088;52.232;5.196;2023-05-10T02:00:40;101.57;;;49.25;;
48268;SDS011;34088;52.232;5.196;2023-05-10T02:03:08;95.30;;;48.95;;
48268;SDS011;34088;52.232;5.196;2023-05-10T02:05:35;94.45;;;47.95;;
48268;SDS011;34088;52.232;5.196;2023-05-10T02:08:02;99.20;;;49.13;;
48268;SDS011;34088;52.232;5.196;2023-05-10T02:10:30;98.32;;;49.63;;
48268;SDS011;34088;52.232;5.196;2023-05-10T02:12:58;105.70;;;51.80;;
48268;SDS011;34088;52.232;5.196;2023-05-10T02:15:25;92.60;;;46.97;;
48268;SDS011;34088;52.232;5.196;2023-05-10T02:17:52;99.05;;;48.38;;
48268;SDS011;34088;52.232;5.196;2023-05-10T02:20:20;96.55;;;48.28;;
48268;SDS011;34088;52.232;5.196;2023-05-10T02:22:47;102.53;;;50.35;;
48268;SDS011;34088;52.232;5.196;2023-05-10T02:25:14;111.93;;;51.17;;
48268;SDS011;34088;52.232;5.196;2023-05-10T02:27:41;112.50;;;51.42;;
48268;SDS011;34088;52.232;5.196;2023-05-10T02:30:08;104.55;;;49.97;;
48268;SDS011;34088;52.232;5.196;2023-05-10T02:32:35;92.38;;;47.25;;
48268;SDS011;34088;52.232;5.196;2023-05-10T02:35:02;88.55;;;45.83;;
48268;SDS011;34088;52.232;5.196;2023-05-10T02:37:28;88.65;;;46.28;;
48268;SDS011;34088;52.232;5.196;2023-05-10T02:39:55;87.75;;;45.65;;
48268;SDS011;34088;52.232;5.196;2023-05-10T02:42:23;86.10;;;44.47;;
48268;SDS011;34088;52.232;5.196;2023-05-10T02:44:53;92.57;;;46.67;;
48268;SDS011;34088;52.232;5.196;2023-05-10T02:47:20;86.03;;;45.00;;
48268;SDS011;34088;52.232;5.196;2023-05-10T02:49:46;80.63;;;42.95;;
48268;SDS011;34088;52.232;5.196;2023-05-10T02:52:11;83.35;;;44.03;;
48268;SDS011;34088;52.232;5.196;2023-05-10T02:54:44;89.70;;;46.13;;
48268;SDS011;34088;52.232;5.196;2023-05-10T02:57:11;84.78;;;44.95;;
48268;SDS011;34088;52.232;5.196;2023-05-10T02:59:40;84.95;;;44.17;;
48268;SDS011;34088;52.232;5.196;2023-05-10T03:02:07;75.15;;;40.05;;
48268;SDS011;34088;52.232;5.196;2023-05-10T03:04:34;71.10;;;38.63;;
48268;SDS011;34088;52.232;5.196;2023-05-10T03:06:59;80.10;;;41.45;;
48268;SDS011;34088;52.232;5.196;2023-05-10T03:09:25;81.70;;;43.10;;
48268;SDS011;34088;52.232;5.196;2023-05-10T03:12:11;89.45;;;44.83;;
48268;SDS011;34088;52.232;5.196;2023-05-10T03:15:03;98.65;;;47.92;;
48268;SDS011;34088;52.232;5.196;2023-05-10T03:20:12;116.05;;;50.38;;
48268;SDS011;34088;52.232;5.196;2023-05-10T03:22:46;129.60;;;51.63;;
48268;SDS011;34088;52.232;5.196;2023-05-10T03:25:15;117.07;;;50.40;;
48268;SDS011;34088;52.232;5.196;2023-05-10T03:27:42;133.75;;;50.75;;
48268;SDS011;34088;52.232;5.196;2023-05-10T03:30:10;138.05;;;51.03;;
48268;SDS011;34088;52.232;5.196;2023-05-10T03:32:37;114.30;;;45.20;;
48268;SDS011;34088;52.232;5.196;2023-05-10T03:35:08;115.15;;;46.70;;
48268;SDS011;34088;52.232;5.196;2023-05-10T03:37:34;131.43;;;49.50;;
48268;SDS011;34088;52.232;5.196;2023-05-10T03:40:00;117.90;;;47.00;;
48268;SDS011;34088;52.232;5.196;2023-05-10T03:42:27;117.90;;;47.55;;
48268;SDS011;34088;52.232;5.196;2023-05-10T03:44:52;120.07;;;46.78;;
48268;SDS011;34088;52.232;5.196;2023-05-10T03:47:18;106.55;;;43.95;;
48268;SDS011;34088;52.232;5.196;2023-05-10T03:49:43;120.00;;;44.15;;
48268;SDS011;34088;52.232;5.196;2023-05-10T03:52:09;107.70;;;41.90;;
48268;SDS011;34088;52.232;5.196;2023-05-10T03:54:34;124.78;;;44.85;;
48268;SDS011;34088;52.232;5.196;2023-05-10T03:57:00;112.47;;;41.10;;
48268;SDS011;34088;52.232;5.196;2023-05-10T03:59:26;106.35;;;38.83;;
48268;SDS011;34088;52.232;5.196;2023-05-10T04:01:51;107.22;;;37.88;;
48268;SDS011;34088;52.232;5.196;2023-05-10T04:04:17;91.07;;;35.67;;
48268;SDS011;34088;52.232;5.196;2023-05-10T04:06:43;89.10;;;34.45;;
48268;SDS011;34088;52.232;5.196;2023-05-10T04:09:09;96.57;;;36.45;;
48268;SDS011;34088;52.232;5.196;2023-05-10T04:11:35;93.10;;;36.45;;
48268;SDS011;34088;52.232;5.196;2023-05-10T04:14:01;89.35;;;36.67;;
48268;SDS011;34088;52.232;5.196;2023-05-10T04:16:26;106.45;;;37.95;;
48268;SDS011;34088;52.232;5.196;2023-05-10T04:18:52;102.75;;;39.65;;
48268;SDS011;34088;52.232;5.196;2023-05-10T04:21:18;113.78;;;42.55;;
48268;SDS011;34088;52.232;5.196;2023-05-10T04:23:43;117.35;;;40.50;;
48268;SDS011;34088;52.232;5.196;2023-05-10T04:26:09;121.90;;;42.13;;
48268;SDS011;34088;52.232;5.196;2023-05-10T04:28:34;115.95;;;42.25;;
48268;SDS011;34088;52.232;5.196;2023-05-10T04:31:03;113.40;;;40.90;;
48268;SDS011;34088;52.232;5.196;2023-05-10T04:33:29;124.60;;;42.85;;
48268;SDS011;34088;52.232;5.196;2023-05-10T04:35:55;108.10;;;39.22;;
48268;SDS011;34088;52.232;5.196;2023-05-10T04:38:21;105.28;;;39.22;;
48268;SDS011;34088;52.232;5.196;2023-05-10T04:40:46;102.95;;;39.22;;
48268;SDS011;34088;52.232;5.196;2023-05-10T04:43:12;102.47;;;37.83;;
48268;SDS011;34088;52.232;5.196;2023-05-10T04:45:37;104.85;;;39.13;;
48268;SDS011;34088;52.232;5.196;2023-05-10T04:48:03;113.18;;;40.50;;
48268;SDS011;34088;52.232;5.196;2023-05-10T04:50:29;111.25;;;41.75;;
48268;SDS011;34088;52.232;5.196;2023-05-10T04:52:55;112.53;;;42.45;;
48268;SDS011;34088;52.232;5.196;2023-05-10T04:55:20;109.60;;;42.33;;
48268;SDS011;34088;52.232;5.196;2023-05-10T04:57:46;100.63;;;40.38;;
48268;SDS011;34088;52.232;5.196;2023-05-10T05:00:12;92.95;;;40.00;;
48268;SDS011;34088;52.232;5.196;2023-05-10T05:02:37;101.85;;;42.25;;
48268;SDS011;34088;52.232;5.196;2023-05-10T05:05:03;82.55;;;38.00;;
48268;SDS011;34088;52.232;5.196;2023-05-10T05:07:29;88.72;;;39.28;;
48268;SDS011;34088;52.232;5.196;2023-05-10T05:09:55;84.28;;;39.25;;
48268;SDS011;34088;52.232;5.196;2023-05-10T05:12:21;74.63;;;36.67;;
48268;SDS011;34088;52.232;5.196;2023-05-10T05:14:46;80.45;;;38.08;;
48268;SDS011;34088;52.232;5.196;2023-05-10T05:17:12;91.43;;;40.20;;
48268;SDS011;34088;52.232;5.196;2023-05-10T05:19:38;90.60;;;35.38;;
48268;SDS011;34088;52.232;5.196;2023-05-10T05:22:03;76.75;;;31.85;;
48268;SDS011;34088;52.232;5.196;2023-05-10T05:24:35;70.18;;;29.30;;
48268;SDS011;34088;52.232;5.196;2023-05-10T05:27:03;63.25;;;29.20;;
48268;SDS011;34088;52.232;5.196;2023-05-10T05:29:28;72.75;;;29.45;;
48268;SDS011;34088;52.232;5.196;2023-05-10T05:31:54;60.88;;;26.85;;
48268;SDS011;34088;52.232;5.196;2023-05-10T05:34:20;54.50;;;26.00;;
48268;SDS011;34088;52.232;5.196;2023-05-10T05:36:47;52.20;;;24.80;;
48268;SDS011;34088;52.232;5.196;2023-05-10T05:39:12;52.58;;;24.20;;
48268;SDS011;34088;52.232;5.196;2023-05-10T05:41:38;43.25;;;22.98;;
48268;SDS011;34088;52.232;5.196;2023-05-10T05:44:04;47.55;;;23.27;;
48268;SDS011;34088;52.232;5.196;2023-05-10T05:46:29;50.88;;;26.13;;
48268;SDS011;34088;52.232;5.196;2023-05-10T05:48:55;50.83;;;26.17;;
48268;SDS011;34088;52.232;5.196;2023-05-10T05:51:21;41.25;;;22.33;;
48268;SDS011;34088;52.232;5.196;2023-05-10T05:53:46;47.05;;;24.92;;
48268;SDS011;34088;52.232;5.196;2023-05-10T05:56:12;46.75;;;23.73;;
48268;SDS011;34088;52.232;5.196;2023-05-10T05:58:37;48.22;;;23.42;;
48268;SDS011;34088;52.232;5.196;2023-05-10T06:01:03;45.60;;;23.23;;
48268;SDS011;34088;52.232;5.196;2023-05-10T06:03:29;41.80;;;21.08;;
48268;SDS011;34088;52.232;5.196;2023-05-10T06:05:54;34.63;;;18.88;;
48268;SDS011;34088;52.232;5.196;2023-05-10T06:08:20;37.97;;;19.42;;
48268;SDS011;34088;52.232;5.196;2023-05-10T06:10:45;41.55;;;20.88;;
48268;SDS011;34088;52.232;5.196;2023-05-10T06:13:11;40.47;;;20.67;;
48268;SDS011;34088;52.232;5.196;2023-05-10T06:15:37;46.10;;;21.80;;
48268;SDS011;34088;52.232;5.196;2023-05-10T06:18:03;44.10;;;22.20;;
48268;SDS011;34088;52.232;5.196;2023-05-10T06:20:28;55.25;;;25.73;;
48268;SDS011;34088;52.232;5.196;2023-05-10T06:22:56;55.25;;;26.05;;
48268;SDS011;34088;52.232;5.196;2023-05-10T06:25:22;63.63;;;27.55;;
48268;SDS011;34088;52.232;5.196;2023-05-10T06:27:48;62.10;;;26.38;;
48268;SDS011;34088;52.232;5.196;2023-05-10T06:30:13;57.08;;;26.25;;
48268;SDS011;34088;52.232;5.196;2023-05-10T06:32:40;61.20;;;26.40;;
48268;SDS011;34088;52.232;5.196;2023-05-10T06:35:06;53.00;;;23.58;;
48268;SDS011;34088;52.232;5.196;2023-05-10T06:37:32;51.65;;;22.98;;
48268;SDS011;34088;52.232;5.196;2023-05-10T06:39:59;52.78;;;23.25;;
48268;SDS011;34088;52.232;5.196;2023-05-10T06:42:25;52.97;;;24.08;;
48268;SDS011;34088;52.232;5.196;2023-05-10T06:44:51;51.05;;;23.50;;
48268;SDS011;34088;52.232;5.196;2023-05-10T06:47:17;52.45;;;24.55;;
48268;SDS011;34088;52.232;5.196;2023-05-10T06:49:43;49.08;;;23.85;;
48268;SDS011;34088;52.232;5.196;2023-05-10T06:52:08;46.83;;;23.88;;
48268;SDS011;34088;52.232;5.196;2023-05-10T06:54:34;46.22;;;24.05;;
48268;SDS011;34088;52.232;5.196;2023-05-10T06:56:59;49.10;;;23.73;;
48268;SDS011;34088;52.232;5.196;2023-05-10T06:59:25;48.80;;;22.95;;
48268;SDS011;34088;52.232;5.196;2023-05-10T07:01:50;48.08;;;21.58;;
48268;SDS011;34088;52.232;5.196;2023-05-10T07:04:16;41.83;;;20.92;;
48268;SDS011;34088;52.232;5.196;2023-05-10T07:06:42;44.47;;;20.75;;
48268;SDS011;34088;52.232;5.196;2023-05-10T07:09:08;42.67;;;24.70;;
48268;SDS011;34088;52.232;5.196;2023-05-10T07:11:34;41.20;;;21.80;;
48268;SDS011;34088;52.232;5.196;2023-05-10T07:13:59;38.90;;;20.23;;
48268;SDS011;34088;52.232;5.196;2023-05-10T07:16:25;37.55;;;19.90;;
48268;SDS011;34088;52.232;5.196;2023-05-10T07:18:50;38.88;;;20.77;;
48268;SDS011;34088;52.232;5.196;2023-05-10T07:21:17;36.47;;;19.23;;
48268;SDS011;34088;52.232;5.196;2023-05-10T07:23:43;36.63;;;19.67;;
48268;SDS011;34088;52.232;5.196;2023-05-10T07:26:09;37.05;;;20.17;;
48268;SDS011;34088;52.232;5.196;2023-05-10T07:28:35;37.05;;;19.80;;
48268;SDS011;34088;52.232;5.196;2023-05-10T07:31:02;32.30;;;19.50;;
48268;SDS011;34088;52.232;5.196;2023-05-10T07:33:28;30.70;;;18.63;;
48268;SDS011;34088;52.232;5.196;2023-05-10T07:35:53;31.42;;;20.25;;
48268;SDS011;34088;52.232;5.196;2023-05-10T07:38:19;35.67;;;19.23;;
48268;SDS011;34088;52.232;5.196;2023-05-10T07:40:44;33.53;;;18.67;;
48268;SDS011;34088;52.232;5.196;2023-05-10T07:43:10;27.95;;;17.35;;
48268;SDS011;34088;52.232;5.196;2023-05-10T07:45:35;30.15;;;18.33;;
48268;SDS011;34088;52.232;5.196;2023-05-10T07:48:01;33.83;;;18.88;;
48268;SDS011;34088;52.232;5.196;2023-05-10T07:50:26;34.60;;;18.63;;
48268;SDS011;34088;52.232;5.196;2023-05-10T07:52:52;30.13;;;18.95;;
48268;SDS011;34088;52.232;5.196;2023-05-10T07:55:18;32.88;;;18.52;;
48268;SDS011;34088;52.232;5.196;2023-05-10T07:57:44;30.95;;;19.55;;
48268;SDS011;34088;52.232;5.196;2023-05-10T08:00:15;30.93;;;21.03;;
48268;SDS011;34088;52.232;5.196;2023-05-10T08:02:42;34.88;;;20.65;;
48268;SDS011;34088;52.232;5.196;2023-05-10T08:05:08;34.58;;;20.08;;
48268;SDS011;34088;52.232;5.196;2023-05-10T08:07:33;27.40;;;18.20;;
48268;SDS011;34088;52.232;5.196;2023-05-10T08:09:59;29.95;;;18.65;;
48268;SDS011;34088;52.232;5.196;2023-05-10T08:12:24;29.60;;;18.67;;
48268;SDS011;34088;52.232;5.196;2023-05-10T08:14:50;27.55;;;17.48;;
48268;SDS011;34088;52.232;5.196;2023-05-10T08:17:16;30.15;;;18.45;;
48268;SDS011;34088;52.232;5.196;2023-05-10T08:19:41;27.17;;;17.23;;
48268;SDS011;34088;52.232;5.196;2023-05-10T08:22:07;27.73;;;17.08;;
48268;SDS011;34088;52.232;5.196;2023-05-10T08:24:32;28.25;;;16.80;;
48268;SDS011;34088;52.232;5.196;2023-05-10T08:26:59;25.63;;;17.40;;
48268;SDS011;34088;52.232;5.196;2023-05-10T08:29:25;23.50;;;16.90;;
48268;SDS011;34088;52.232;5.196;2023-05-10T08:31:51;24.15;;;15.60;;
48268;SDS011;34088;52.232;5.196;2023-05-10T08:34:16;21.38;;;14.43;;
48268;SDS011;34088;52.232;5.196;2023-05-10T08:36:42;25.95;;;14.40;;
48268;SDS011;34088;52.232;5.196;2023-05-10T08:39:07;17.73;;;10.77;;
48268;SDS011;34088;52.232;5.196;2023-05-10T08:41:34;16.33;;;10.60;;
48268;SDS011;34088;52.232;5.196;2023-05-10T08:44:00;18.70;;;12.07;;
48268;SDS011;34088;52.232;5.196;2023-05-10T08:46:29;19.23;;;12.52;;
48268;SDS011;34088;52.232;5.196;2023-05-10T08:48:56;18.25;;;11.77;;
48268;SDS011;34088;52.232;5.196;2023-05-10T08:51:24;17.90;;;11.80;;
48268;SDS011;34088;52.232;5.196;2023-05-10T08:53:51;17.80;;;11.77;;
48268;SDS011;34088;52.232;5.196;2023-05-10T08:56:17;19.35;;;12.20;;
48268;SDS011;34088;52.232;5.196;2023-05-10T08:58:43;16.67;;;11.32;;
48268;SDS011;34088;52.232;5.196;2023-05-10T09:01:09;19.08;;;12.43;;
48268;SDS011;34088;52.232;5.196;2023-05-10T09:03:35;18.27;;;12.40;;
48268;SDS011;34088;52.232;5.196;2023-05-10T09:06:00;17.95;;;12.32;;
48268;SDS011;34088;52.232;5.196;2023-05-10T09:08:26;17.75;;;11.80;;
48268;SDS011;34088;52.232;5.196;2023-05-10T09:10:52;20.73;;;13.35;;
48268;SDS011;34088;52.232;5.196;2023-05-10T09:13:19;16.88;;;11.80;;
48268;SDS011;34088;52.232;5.196;2023-05-10T09:15:44;16.70;;;11.10;;
48268;SDS011;34088;52.232;5.196;2023-05-10T09:18:10;15.15;;;11.13;;
48268;SDS011;34088;52.232;5.196;2023-05-10T09:20:36;17.35;;;10.98;;
48268;SDS011;34088;52.232;5.196;2023-05-10T09:23:02;16.55;;;11.80;;
48268;SDS011;34088;52.232;5.196;2023-05-10T09:25:28;17.42;;;12.30;;
48268;SDS011;34088;52.232;5.196;2023-05-10T09:27:53;18.27;;;12.27;;
48268;SDS011;34088;52.232;5.196;2023-05-10T09:30:23;16.63;;;11.73;;
48268;SDS011;34088;52.232;5.196;2023-05-10T09:32:56;20.13;;;12.40;;
48268;SDS011;34088;52.232;5.196;2023-05-10T09:35:23;16.85;;;12.10;;
48268;SDS011;34088;52.232;5.196;2023-05-10T09:37:51;18.55;;;11.52;;
48268;SDS011;34088;52.232;5.196;2023-05-10T09:40:19;17.02;;;11.35;;
48268;SDS011;34088;52.232;5.196;2023-05-10T09:42:54;14.38;;;9.70;;
48268;SDS011;34088;52.232;5.196;2023-05-10T09:45:24;11.90;;;8.15;;
48268;SDS011;34088;52.232;5.196;2023-05-10T09:47:56;12.82;;;9.32;;
48268;SDS011;34088;52.232;5.196;2023-05-10T09:50:22;14.70;;;9.10;;
48268;SDS011;34088;52.232;5.196;2023-05-10T09:55:16;12.50;;;8.77;;
48268;SDS011;34088;52.232;5.196;2023-05-10T09:57:42;13.25;;;8.98;;
48268;SDS011;34088;52.232;5.196;2023-05-10T10:00:08;12.95;;;8.00;;
48268;SDS011;34088;52.232;5.196;2023-05-10T10:02:37;12.23;;;8.60;;
48268;SDS011;34088;52.232;5.196;2023-05-10T10:05:04;11.20;;;7.68;;
48268;SDS011;34088;52.232;5.196;2023-05-10T10:07:31;10.30;;;7.45;;
48268;SDS011;34088;52.232;5.196;2023-05-10T10:09:57;12.77;;;7.70;;
48268;SDS011;34088;52.232;5.196;2023-05-10T10:12:24;10.63;;;7.80;;
48268;SDS011;34088;52.232;5.196;2023-05-10T10:14:50;9.13;;;6.78;;
48268;SDS011;34088;52.232;5.196;2023-05-10T10:17:16;9.05;;;6.55;;
48268;SDS011;34088;52.232;5.196;2023-05-10T10:19:42;11.13;;;7.03;;
48268;SDS011;34088;52.232;5.196;2023-05-10T10:22:07;11.15;;;6.93;;
48268;SDS011;34088;52.232;5.196;2023-05-10T10:24:35;11.38;;;6.28;;
48268;SDS011;34088;52.232;5.196;2023-05-10T10:27:11;8.35;;;5.75;;
48268;SDS011;34088;52.232;5.196;2023-05-10T10:30:04;9.63;;;6.28;;
48268;SDS011;34088;52.232;5.196;2023-05-10T10:35:25;7.20;;;5.65;;
48268;SDS011;34088;52.232;5.196;2023-05-10T10:37:51;9.50;;;5.30;;
48268;SDS011;34088;52.232;5.196;2023-05-10T10:40:29;6.90;;;4.97;;
48268;SDS011;34088;52.232;5.196;2023-05-10T10:43:20;7.82;;;5.00;;
48268;SDS011;34088;52.232;5.196;2023-05-10T10:48:33;8.93;;;5.13;;
48268;SDS011;34088;52.232;5.196;2023-05-10T10:50:58;7.68;;;4.80;;
48268;SDS011;34088;52.232;5.196;2023-05-10T10:53:27;7.88;;;4.88;;
48268;SDS011;34088;52.232;5.196;2023-05-10T10:56:02;6.05;;;4.72;;
48268;SDS011;34088;52.232;5.196;2023-05-10T10:58:32;8.02;;;4.68;;
48268;SDS011;34088;52.232;5.196;2023-05-10T11:03:40;5.78;;;4.20;;
48268;SDS011;34088;52.232;5.196;2023-05-10T11:06:06;6.78;;;4.65;;
48268;SDS011;34088;52.232;5.196;2023-05-10T11:08:33;7.07;;;4.30;;
48268;SDS011;34088;52.232;5.196;2023-05-10T11:13:31;6.07;;;4.43;;
48268;SDS011;34088;52.232;5.196;2023-05-10T11:21:19;9.63;;;5.07;;
48268;SDS011;34088;52.232;5.196;2023-05-10T11:23:52;8.57;;;5.13;;
48268;SDS011;34088;52.232;5.196;2023-05-10T11:26:23;9.88;;;6.15;;
48268;SDS011;34088;52.232;5.196;2023-05-10T11:28:50;12.27;;;6.43;;
48268;SDS011;34088;52.232;5.196;2023-05-10T11:31:18;9.98;;;6.30;;
48268;SDS011;34088;52.232;5.196;2023-05-10T11:33:51;9.15;;;5.68;;
48268;SDS011;34088;52.232;5.196;2023-05-10T11:36:23;9.60;;;5.82;;
48268;SDS011;34088;52.232;5.196;2023-05-10T11:38:52;11.15;;;5.40;;
48268;SDS011;34088;52.232;5.196;2023-05-10T11:41:19;6.80;;;4.40;;
48268;SDS011;34088;52.232;5.196;2023-05-10T11:43:51;9.25;;;4.57;;
48268;SDS011;34088;52.232;5.196;2023-05-10T11:46:19;8.00;;;4.90;;
48268;SDS011;34088;52.232;5.196;2023-05-10T11:48:45;8.38;;;4.53;;
48268;SDS011;34088;52.232;5.196;2023-05-10T11:51:12;7.82;;;4.68;;
48268;SDS011;34088;52.232;5.196;2023-05-10T11:53:38;8.68;;;4.50;;
48268;SDS011;34088;52.232;5.196;2023-05-10T11:56:05;8.45;;;4.28;;
48268;SDS011;34088;52.232;5.196;2023-05-10T11:58:31;9.45;;;4.32;;
48268;SDS011;34088;52.232;5.196;2023-05-10T12:00:58;6.03;;;4.15;;
48268;SDS011;34088;52.232;5.196;2023-05-10T12:03:24;5.50;;;3.92;;
48268;SDS011;34088;52.232;5.196;2023-05-10T12:05:50;9.23;;;4.20;;
48268;SDS011;34088;52.232;5.196;2023-05-10T12:08:19;7.40;;;4.70;;
48268;SDS011;34088;52.232;5.196;2023-05-10T12:10:48;12.52;;;4.65;;
48268;SDS011;34088;52.232;5.196;2023-05-10T12:13:14;8.80;;;4.97;;
48268;SDS011;34088;52.232;5.196;2023-05-10T12:15:41;8.65;;;5.00;;
48268;SDS011;34088;52.232;5.196;2023-05-10T12:20:34;8.43;;;4.93;;
48268;SDS011;34088;52.232;5.196;2023-05-10T12:22:59;9.40;;;5.35;;
48268;SDS011;34088;52.232;5.196;2023-05-10T12:25:31;6.72;;;4.60;;
48268;SDS011;34088;52.232;5.196;2023-05-10T12:27:58;9.32;;;4.88;;
48268;SDS011;34088;52.232;5.196;2023-05-10T12:30:28;6.53;;;4.97;;
48268;SDS011;34088;52.232;5.196;2023-05-10T12:33:01;7.65;;;5.03;;
48268;SDS011;34088;52.232;5.196;2023-05-10T12:35:43;8.32;;;5.10;;
48268;SDS011;34088;52.232;5.196;2023-05-10T12:38:35;8.88;;;5.30;;
48268;SDS011;34088;52.232;5.196;2023-05-10T12:41:03;7.15;;;4.60;;
48268;SDS011;34088;52.232;5.196;2023-05-10T12:43:31;8.93;;;5.40;;
48268;SDS011;34088;52.232;5.196;2023-05-10T12:45:57;8.57;;;5.43;;
48268;SDS011;34088;52.232;5.196;2023-05-10T12:48:22;12.65;;;6.30;;
48268;SDS011;34088;52.232;5.196;2023-05-10T12:50:49;12.73;;;5.68;;
48268;SDS011;34088;52.232;5.196;2023-05-10T12:53:14;9.40;;;5.88;;
48268;SDS011;34088;52.232;5.196;2023-05-10T12:55:41;8.25;;;5.93;;
48268;SDS011;34088;52.232;5.196;2023-05-10T12:58:07;8.90;;;6.35;;
48268;SDS011;34088;52.232;5.196;2023-05-10T13:00:33;9.43;;;6.10;;
48268;SDS011;34088;52.232;5.196;2023-05-10T13:02:58;8.13;;;5.07;;
48268;SDS011;34088;52.232;5.196;2023-05-10T13:05:24;8.77;;;5.75;;
48268;SDS011;34088;52.232;5.196;2023-05-10T13:07:50;9.88;;;6.55;;
48268;SDS011;34088;52.232;5.196;2023-05-10T13:10:15;13.75;;;9.18;;
48268;SDS011;34088;52.232;5.196;2023-05-10T13:12:41;20.83;;;10.05;;
48268;SDS011;34088;52.232;5.196;2023-05-10T13:15:07;19.17;;;11.68;;
48268;SDS011;34088;52.232;5.196;2023-05-10T13:17:32;19.27;;;11.05;;
48268;SDS011;34088;52.232;5.196;2023-05-10T13:19:58;21.63;;;13.75;;
48268;SDS011;34088;52.232;5.196;2023-05-10T13:22:23;20.23;;;13.32;;
48268;SDS011;34088;52.232;5.196;2023-05-10T13:24:49;20.30;;;13.00;;
48268;SDS011;34088;52.232;5.196;2023-05-10T13:27:15;21.23;;;12.73;;
48268;SDS011;34088;52.232;5.196;2023-05-10T13:29:40;21.63;;;13.90;;
48268;SDS011;34088;52.232;5.196;2023-05-10T13:32:06;21.55;;;13.85;;
48268;SDS011;34088;52.232;5.196;2023-05-10T13:34:31;22.90;;;13.60;;
48268;SDS011;34088;52.232;5.196;2023-05-10T13:36:57;24.60;;;13.65;;
48268;SDS011;34088;52.232;5.196;2023-05-10T13:39:23;23.25;;;13.95;;
48268;SDS011;34088;52.232;5.196;2023-05-10T13:41:48;22.02;;;12.27;;
48268;SDS011;34088;52.232;5.196;2023-05-10T13:44:14;24.13;;;13.60;;
48268;SDS011;34088;52.232;5.196;2023-05-10T13:46:40;22.65;;;13.35;;
48268;SDS011;34088;52.232;5.196;2023-05-10T13:49:07;21.60;;;13.00;;
48268;SDS011;34088;52.232;5.196;2023-05-10T13:51:33;20.42;;;12.30;;
48268;SDS011;34088;52.232;5.196;2023-05-10T13:53:59;21.67;;;12.10;;
48268;SDS011;34088;52.232;5.196;2023-05-10T13:56:25;19.13;;;11.40;;
48268;SDS011;34088;52.232;5.196;2023-05-10T13:58:50;22.08;;;11.02;;
48268;SDS011;34088;52.232;5.196;2023-05-10T14:01:16;21.42;;;11.10;;
48268;SDS011;34088;52.232;5.196;2023-05-10T14:03:41;18.27;;;11.07;;
48268;SDS011;34088;52.232;5.196;2023-05-10T14:06:07;18.63;;;10.52;;
48268;SDS011;34088;52.232;5.196;2023-05-10T14:08:33;15.45;;;9.43;;
48268;SDS011;34088;52.232;5.196;2023-05-10T14:11:00;14.65;;;8.57;;
48268;SDS011;34088;52.232;5.196;2023-05-10T14:13:25;15.85;;;8.48;;
48268;SDS011;34088;52.232;5.196;2023-05-10T14:15:52;13.95;;;8.75;;
48268;SDS011;34088;52.232;5.196;2023-05-10T14:18:18;15.23;;;9.05;;
48268;SDS011;34088;52.232;5.196;2023-05-10T14:20:43;14.25;;;8.82;;
48268;SDS011;34088;52.232;5.196;2023-05-10T14:23:09;14.80;;;8.93;;
48268;SDS011;34088;52.232;5.196;2023-05-10T14:25:35;13.70;;;8.30;;
48268;SDS011;34088;52.232;5.196;2023-05-10T14:28:00;13.88;;;8.82;;
48268;SDS011;34088;52.232;5.196;2023-05-10T14:30:26;13.30;;;8.45;;
48268;SDS011;34088;52.232;5.196;2023-05-10T14:32:52;13.80;;;8.60;;
48268;SDS011;34088;52.232;5.196;2023-05-10T14:35:18;16.88;;;9.43;;
48268;SDS011;34088;52.232;5.196;2023-05-10T14:37:44;13.77;;;8.73;;
48268;SDS011;34088;52.232;5.196;2023-05-10T14:40:10;14.70;;;8.73;;
48268;SDS011;34088;52.232;5.196;2023-05-10T14:42:36;14.75;;;7.95;;
48268;SDS011;34088;52.232;5.196;2023-05-10T14:45:02;12.55;;;7.43;;
48268;SDS011;34088;52.232;5.196;2023-05-10T14:47:28;13.48;;;7.72;;
48268;SDS011;34088;52.232;5.196;2023-05-10T14:49:54;14.15;;;8.88;;
48268;SDS011;34088;52.232;5.196;2023-05-10T14:52:19;14.93;;;9.00;;
48268;SDS011;34088;52.232;5.196;2023-05-10T14:54:45;15.20;;;8.73;;
48268;SDS011;34088;52.232;5.196;2023-05-10T14:57:11;15.50;;;8.77;;
48268;SDS011;34088;52.232;5.196;2023-05-10T14:59:36;14.30;;;9.07;;
48268;SDS011;34088;52.232;5.196;2023-05-10T15:02:02;13.65;;;8.80;;
48268;SDS011;34088;52.232;5.196;2023-05-10T15:04:29;13.70;;;9.40;;
48268;SDS011;34088;52.232;5.196;2023-05-10T15:06:54;15.23;;;9.10;;
48268;SDS011;34088;52.232;5.196;2023-05-10T15:09:23;15.05;;;9.45;;
48268;SDS011;34088;52.232;5.196;2023-05-10T15:11:49;16.17;;;9.40;;
48268;SDS011;34088;52.232;5.196;2023-05-10T15:14:15;15.18;;;8.57;;
48268;SDS011;34088;52.232;5.196;2023-05-10T15:16:41;14.23;;;8.85;;
48268;SDS011;34088;52.232;5.196;2023-05-10T15:19:06;15.50;;;8.63;;